sensor_id;sensor_type;location;lat;lon;timestamp;temperature;humidity
11922;DHT22;6021;51.182;3.160;2023-08-06T00:01:33;14.40;99.90
11922;DHT22;6021;51.182;3.160;2023-08-06T00:04:01;14.40;99.90
11922;DHT22;6021;51.182;3.160;2023-08-06T00:06:30;14.40;99.90
11922;DHT22;6021;51.182;3.160;2023-08-06T00:08:58;14.30;99.90
11922;DHT22;6021;51.182;3.160;2023-08-06T00:11:26;14.30;99.90
11922;DHT22;6021;51.182;3.160;2023-08-06T00:13:55;14.20;99.90
11922;DHT22;6021;51.182;3.160;2023-08-06T00:16:23;14.20;99.90
11922;DHT22;6021;51.182;3.160;2023-08-06T00:18:51;14.20;99.90
11922;DHT22;6021;51.182;3.160;2023-08-06T00:21:20;14.30;99.90
11922;DHT22;6021;51.182;3.160;2023-08-06T00:23:48;14.30;99.90
11922;DHT22;6021;51.182;3.160;2023-08-06T00:26:16;14.30;99.90
11922;DHT22;6021;51.182;3.160;2023-08-06T00:28:45;14.40;99.90
11922;DHT22;6021;51.182;3.160;2023-08-06T00:31:13;14.40;99.90
11922;DHT22;6021;51.182;3.160;2023-08-06T00:33:41;14.30;99.90
11922;DHT22;6021;51.182;3.160;2023-08-06T00:36:09;14.20;99.90
11922;DHT22;6021;51.182;3.160;2023-08-06T00:38:38;14.20;99.90
11922;DHT22;6021;51.182;3.160;2023-08-06T00:41:06;14.00;99.90
11922;DHT22;6021;51.182;3.160;2023-08-06T00:43:35;14.00;99.90
11922;DHT22;6021;51.182;3.160;2023-08-06T00:46:03;14.10;99.90
11922;DHT22;6021;51.182;3.160;2023-08-06T00:48:33;14.10;99.90
11922;DHT22;6021;51.182;3.160;2023-08-06T00:51:02;14.10;99.90
11922;DHT22;6021;51.182;3.160;2023-08-06T00:53:30;14.20;99.90
11922;DHT22;6021;51.182;3.160;2023-08-06T00:55:59;14.20;99.90
11922;DHT22;6021;51.182;3.160;2023-08-06T00:58:27;14.20;99.90
11922;DHT22;6021;51.182;3.160;2023-08-06T01:00:56;14.30;99.90
11922;DHT22;6021;51.182;3.160;2023-08-06T01:03:24;14.40;99.90
11922;DHT22;6021;51.182;3.160;2023-08-06T01:05:53;14.40;99.90
11922;DHT22;6021;51.182;3.160;2023-08-06T01:08:36;14.50;99.90
11922;DHT22;6021;51.182;3.160;2023-08-06T01:11:13;14.60;99.90
11922;DHT22;6021;51.182;3.160;2023-08-06T01:13:42;14.60;99.90
11922;DHT22;6021;51.182;3.160;2023-08-06T01:16:17;14.50;99.90
11922;DHT22;6021;51.182;3.160;2023-08-06T01:18:47;14.60;99.90
11922;DHT22;6021;51.182;3.160;2023-08-06T01:21:18;14.60;99.90
11922;DHT22;6021;51.182;3.160;2023-08-06T01:23:47;14.60;99.90
11922;DHT22;6021;51.182;3.160;2023-08-06T01:26:30;14.50;99.90
11922;DHT22;6021;51.182;3.160;2023-08-06T01:29:05;14.60;99.90
11922;DHT22;6021;51.182;3.160;2023-08-06T01:31:35;14.50;99.90
11922;DHT22;6021;51.182;3.160;2023-08-06T01:34:06;14.50;99.90
11922;DHT22;6021;51.182;3.160;2023-08-06T01:36:35;14.50;99.90
11922;DHT22;6021;51.182;3.160;2023-08-06T01:39:05;14.60;99.90
11922;DHT22;6021;51.182;3.160;2023-08-06T01:41:33;14.60;99.90
11922;DHT22;6021;51.182;3.160;2023-08-06T01:44:02;14.50;99.90
11922;DHT22;6021;51.182;3.160;2023-08-06T01:46:30;14.50;99.90
11922;DHT22;6021;51.182;3.160;2023-08-06T01:48:58;14.70;99.90
11922;DHT22;6021;51.182;3.160;2023-08-06T01:51:27;14.50;99.90
11922;DHT22;6021;51.182;3.160;2023-08-06T01:53:55;14.50;99.90
11922;DHT22;6021;51.182;3.160;2023-08-06T01:56:23;14.50;99.90
11922;DHT22;6021;51.182;3.160;2023-08-06T01:58:52;14.50;99.90
11922;DHT22;6021;51.182;3.160;2023-08-06T02:01:20;14.40;99.90
11922;DHT22;6021;51.182;3.160;2023-08-06T02:03:48;14.50;99.90
11922;DHT22;6021;51.182;3.160;2023-08-06T02:06:17;14.50;99.90
11922;DHT22;6021;51.182;3.160;2023-08-06T02:08:45;14.40;99.90
11922;DHT22;6021;51.182;3.160;2023-08-06T02:11:13;14.40;99.90
11922;DHT22;6021;51.182;3.160;2023-08-06T02:13:41;14.40;99.90
11922;DHT22;6021;51.182;3.160;2023-08-06T02:16:10;14.40;99.90
11922;DHT22;6021;51.182;3.160;2023-08-06T02:18:38;14.40;99.90
11922;DHT22;6021;51.182;3.160;2023-08-06T02:21:06;14.40;99.90
11922;DHT22;6021;51.182;3.160;2023-08-06T02:23:35;14.30;99.90
11922;DHT22;6021;51.182;3.160;2023-08-06T02:26:04;14.30;99.90
11922;DHT22;6021;51.182;3.160;2023-08-06T02:28:33;14.30;99.90
11922;DHT22;6021;51.182;3.160;2023-08-06T02:31:01;14.30;99.90
11922;DHT22;6021;51.182;3.160;2023-08-06T02:33:29;14.30;99.90
11922;DHT22;6021;51.182;3.160;2023-08-06T02:36:04;14.30;99.90
11922;DHT22;6021;51.182;3.160;2023-08-06T02:38:32;14.30;99.90
11922;DHT22;6021;51.182;3.160;2023-08-06T02:41:04;14.30;99.90
11922;DHT22;6021;51.182;3.160;2023-08-06T02:43:33;14.30;99.90
11922;DHT22;6021;51.182;3.160;2023-08-06T02:46:01;14.30;99.90
11922;DHT22;6021;51.182;3.160;2023-08-06T02:48:30;14.30;99.90
11922;DHT22;6021;51.182;3.160;2023-08-06T02:50:59;14.30;99.90
11922;DHT22;6021;51.182;3.160;2023-08-06T02:53:27;14.20;99.90
11922;DHT22;6021;51.182;3.160;2023-08-06T02:55:56;14.20;99.90
11922;DHT22;6021;51.182;3.160;2023-08-06T02:58:24;14.30;99.90
11922;DHT22;6021;51.182;3.160;2023-08-06T03:01:05;14.20;99.90
11922;DHT22;6021;51.182;3.160;2023-08-06T03:03:31;14.20;99.90
11922;DHT22;6021;51.182;3.160;2023-08-06T03:06:00;14.20;99.90
11922;DHT22;6021;51.182;3.160;2023-08-06T03:08:28;14.20;99.90
11922;DHT22;6021;51.182;3.160;2023-08-06T03:10:57;14.10;99.90
11922;DHT22;6021;51.182;3.160;2023-08-06T03:13:25;14.10;99.90
11922;DHT22;6021;51.182;3.160;2023-08-06T03:15:56;14.30;99.90
11922;DHT22;6021;51.182;3.160;2023-08-06T03:18:25;14.10;99.90
11922;DHT22;6021;51.182;3.160;2023-08-06T03:20:53;14.00;99.90
11922;DHT22;6021;51.182;3.160;2023-08-06T03:23:22;14.00;99.90
11922;DHT22;6021;51.182;3.160;2023-08-06T03:25:50;14.00;99.90
11922;DHT22;6021;51.182;3.160;2023-08-06T03:28:19;14.00;99.90
11922;DHT22;6021;51.182;3.160;2023-08-06T03:30:47;14.00;99.90
11922;DHT22;6021;51.182;3.160;2023-08-06T03:33:17;13.90;99.90
11922;DHT22;6021;51.182;3.160;2023-08-06T03:35:45;14.00;99.90
11922;DHT22;6021;51.182;3.160;2023-08-06T03:38:13;13.90;99.90
11922;DHT22;6021;51.182;3.160;2023-08-06T03:40:42;13.90;99.90
11922;DHT22;6021;51.182;3.160;2023-08-06T03:43:10;13.90;99.90
11922;DHT22;6021;51.182;3.160;2023-08-06T03:45:40;13.90;99.90
11922;DHT22;6021;51.182;3.160;2023-08-06T03:48:09;13.80;99.90
11922;DHT22;6021;51.182;3.160;2023-08-06T03:50:37;13.80;99.90
11922;DHT22;6021;51.182;3.160;2023-08-06T03:53:06;13.80;99.90
11922;DHT22;6021;51.182;3.160;2023-08-06T03:55:34;13.70;99.90
11922;DHT22;6021;51.182;3.160;2023-08-06T03:58:03;13.70;99.90
11922;DHT22;6021;51.182;3.160;2023-08-06T04:00:31;13.60;99.90
11922;DHT22;6021;51.182;3.160;2023-08-06T04:02:59;13.60;99.90
11922;DHT22;6021;51.182;3.160;2023-08-06T04:05:30;13.40;99.90
11922;DHT22;6021;51.182;3.160;2023-08-06T04:07:57;13.60;99.90
11922;DHT22;6021;51.182;3.160;2023-08-06T04:10:27;13.50;99.90
11922;DHT22;6021;51.182;3.160;2023-08-06T04:12:55;13.60;99.90
11922;DHT22;6021;51.182;3.160;2023-08-06T04:15:24;13.70;99.90
11922;DHT22;6021;51.182;3.160;2023-08-06T04:17:52;13.60;99.90
11922;DHT22;6021;51.182;3.160;2023-08-06T04:20:20;13.60;99.90
11922;DHT22;6021;51.182;3.160;2023-08-06T04:22:49;13.60;99.90
11922;DHT22;6021;51.182;3.160;2023-08-06T04:25:17;13.60;99.90
11922;DHT22;6021;51.182;3.160;2023-08-06T04:27:50;13.60;99.90
11922;DHT22;6021;51.182;3.160;2023-08-06T04:30:18;13.60;99.90
11922;DHT22;6021;51.182;3.160;2023-08-06T04:32:46;13.60;99.90
11922;DHT22;6021;51.182;3.160;2023-08-06T04:35:15;13.40;99.90
11922;DHT22;6021;51.182;3.160;2023-08-06T04:37:43;13.50;99.90
11922;DHT22;6021;51.182;3.160;2023-08-06T04:40:12;13.50;99.90
11922;DHT22;6021;51.182;3.160;2023-08-06T04:42:40;13.50;99.90
11922;DHT22;6021;51.182;3.160;2023-08-06T04:45:09;13.50;99.90
11922;DHT22;6021;51.182;3.160;2023-08-06T04:47:37;13.40;99.90
11922;DHT22;6021;51.182;3.160;2023-08-06T04:50:06;13.40;99.90
11922;DHT22;6021;51.182;3.160;2023-08-06T04:52:35;13.50;99.90
11922;DHT22;6021;51.182;3.160;2023-08-06T04:55:03;13.50;99.90
11922;DHT22;6021;51.182;3.160;2023-08-06T04:57:33;13.50;99.90
11922;DHT22;6021;51.182;3.160;2023-08-06T05:00:04;13.40;99.90
11922;DHT22;6021;51.182;3.160;2023-08-06T05:02:32;13.50;99.90
11922;DHT22;6021;51.182;3.160;2023-08-06T05:05:01;13.50;99.90
11922;DHT22;6021;51.182;3.160;2023-08-06T05:07:30;13.60;99.90
11922;DHT22;6021;51.182;3.160;2023-08-06T05:09:58;13.80;99.90
11922;DHT22;6021;51.182;3.160;2023-08-06T05:12:26;13.60;99.90
11922;DHT22;6021;51.182;3.160;2023-08-06T05:14:54;13.60;99.90
11922;DHT22;6021;51.182;3.160;2023-08-06T05:17:23;13.60;99.90
11922;DHT22;6021;51.182;3.160;2023-08-06T05:19:51;13.50;99.90
11922;DHT22;6021;51.182;3.160;2023-08-06T05:22:20;13.40;99.90
11922;DHT22;6021;51.182;3.160;2023-08-06T05:24:48;13.50;99.90
11922;DHT22;6021;51.182;3.160;2023-08-06T05:27:16;13.40;99.90
11922;DHT22;6021;51.182;3.160;2023-08-06T05:29:47;13.40;99.90
11922;DHT22;6021;51.182;3.160;2023-08-06T05:32:16;13.30;99.90
11922;DHT22;6021;51.182;3.160;2023-08-06T05:34:44;13.30;99.90
11922;DHT22;6021;51.182;3.160;2023-08-06T05:37:12;13.30;99.90
11922;DHT22;6021;51.182;3.160;2023-08-06T05:39:41;13.30;99.90
11922;DHT22;6021;51.182;3.160;2023-08-06T05:42:09;13.30;99.90
11922;DHT22;6021;51.182;3.160;2023-08-06T05:44:37;13.30;99.90
11922;DHT22;6021;51.182;3.160;2023-08-06T05:47:06;13.30;99.90
11922;DHT22;6021;51.182;3.160;2023-08-06T05:49:34;13.30;99.90
11922;DHT22;6021;51.182;3.160;2023-08-06T05:52:02;13.30;99.90
11922;DHT22;6021;51.182;3.160;2023-08-06T05:54:32;13.30;99.90
11922;DHT22;6021;51.182;3.160;2023-08-06T05:57:01;13.40;99.90
11922;DHT22;6021;51.182;3.160;2023-08-06T05:59:29;13.40;99.90
11922;DHT22;6021;51.182;3.160;2023-08-06T06:01:58;13.40;99.90
11922;DHT22;6021;51.182;3.160;2023-08-06T06:04:28;13.50;99.90
11922;DHT22;6021;51.182;3.160;2023-08-06T06:06:56;13.40;99.90
11922;DHT22;6021;51.182;3.160;2023-08-06T06:09:25;13.30;99.90
11922;DHT22;6021;51.182;3.160;2023-08-06T06:11:53;13.30;99.90
11922;DHT22;6021;51.182;3.160;2023-08-06T06:14:21;13.30;99.90
11922;DHT22;6021;51.182;3.160;2023-08-06T06:16:50;13.20;99.90
11922;DHT22;6021;51.182;3.160;2023-08-06T06:19:20;13.20;99.90
11922;DHT22;6021;51.182;3.160;2023-08-06T06:21:48;13.30;99.90
11922;DHT22;6021;51.182;3.160;2023-08-06T06:24:17;13.30;99.90
11922;DHT22;6021;51.182;3.160;2023-08-06T06:26:45;13.30;99.90
11922;DHT22;6021;51.182;3.160;2023-08-06T06:29:13;13.30;99.90
11922;DHT22;6021;51.182;3.160;2023-08-06T06:31:42;13.40;99.90
11922;DHT22;6021;51.182;3.160;2023-08-06T06:34:10;13.40;99.90
11922;DHT22;6021;51.182;3.160;2023-08-06T06:36:39;13.40;99.90
11922;DHT22;6021;51.182;3.160;2023-08-06T06:39:07;13.30;99.90
11922;DHT22;6021;51.182;3.160;2023-08-06T06:41:35;13.30;99.90
11922;DHT22;6021;51.182;3.160;2023-08-06T06:44:05;13.30;99.90
11922;DHT22;6021;51.182;3.160;2023-08-06T06:46:33;13.30;99.90
11922;DHT22;6021;51.182;3.160;2023-08-06T06:49:01;13.30;99.90
11922;DHT22;6021;51.182;3.160;2023-08-06T06:51:30;13.30;99.90
11922;DHT22;6021;51.182;3.160;2023-08-06T06:53:59;13.20;99.90
11922;DHT22;6021;51.182;3.160;2023-08-06T06:56:27;13.20;99.90
11922;DHT22;6021;51.182;3.160;2023-08-06T06:58:55;13.30;99.90
11922;DHT22;6021;51.182;3.160;2023-08-06T07:01:24;13.20;99.90
11922;DHT22;6021;51.182;3.160;2023-08-06T07:03:52;13.20;99.90
11922;DHT22;6021;51.182;3.160;2023-08-06T07:06:21;13.20;99.90
11922;DHT22;6021;51.182;3.160;2023-08-06T07:08:49;13.30;99.90
11922;DHT22;6021;51.182;3.160;2023-08-06T07:11:17;13.30;99.90
11922;DHT22;6021;51.182;3.160;2023-08-06T07:13:46;13.30;99.90
11922;DHT22;6021;51.182;3.160;2023-08-06T07:16:14;13.30;99.90
11922;DHT22;6021;51.182;3.160;2023-08-06T07:18:42;13.30;99.90
11922;DHT22;6021;51.182;3.160;2023-08-06T07:21:11;13.40;99.90
11922;DHT22;6021;51.182;3.160;2023-08-06T07:23:39;13.40;99.90
11922;DHT22;6021;51.182;3.160;2023-08-06T07:26:09;13.40;99.90
11922;DHT22;6021;51.182;3.160;2023-08-06T07:28:44;13.40;99.90
11922;DHT22;6021;51.182;3.160;2023-08-06T07:31:08;13.40;99.90
11922;DHT22;6021;51.182;3.160;2023-08-06T07:33:37;13.40;99.90
11922;DHT22;6021;51.182;3.160;2023-08-06T07:36:10;13.50;99.90
11922;DHT22;6021;51.182;3.160;2023-08-06T07:38:39;13.50;99.90
11922;DHT22;6021;51.182;3.160;2023-08-06T07:41:08;13.50;99.90
11922;DHT22;6021;51.182;3.160;2023-08-06T07:43:36;13.40;99.90
11922;DHT22;6021;51.182;3.160;2023-08-06T07:46:05;13.40;99.90
11922;DHT22;6021;51.182;3.160;2023-08-06T07:48:33;13.50;99.90
11922;DHT22;6021;51.182;3.160;2023-08-06T07:51:01;13.40;99.90
11922;DHT22;6021;51.182;3.160;2023-08-06T07:53:30;13.50;99.90
11922;DHT22;6021;51.182;3.160;2023-08-06T07:55:58;13.40;99.90
11922;DHT22;6021;51.182;3.160;2023-08-06T07:58:28;13.40;99.90
11922;DHT22;6021;51.182;3.160;2023-08-06T08:00:57;13.40;99.90
11922;DHT22;6021;51.182;3.160;2023-08-06T08:03:25;13.50;99.90
11922;DHT22;6021;51.182;3.160;2023-08-06T08:05:55;13.50;99.90
11922;DHT22;6021;51.182;3.160;2023-08-06T08:08:26;13.50;99.90
11922;DHT22;6021;51.182;3.160;2023-08-06T08:10:56;13.50;99.90
11922;DHT22;6021;51.182;3.160;2023-08-06T08:13:26;13.50;99.90
11922;DHT22;6021;51.182;3.160;2023-08-06T08:15:58;13.40;99.90
11922;DHT22;6021;51.182;3.160;2023-08-06T08:18:27;13.50;99.90
11922;DHT22;6021;51.182;3.160;2023-08-06T08:20:55;13.40;99.90
11922;DHT22;6021;51.182;3.160;2023-08-06T08:23:24;13.50;99.90
11922;DHT22;6021;51.182;3.160;2023-08-06T08:25:52;13.40;99.90
11922;DHT22;6021;51.182;3.160;2023-08-06T08:28:22;13.50;99.90
11922;DHT22;6021;51.182;3.160;2023-08-06T08:30:50;13.40;99.90
11922;DHT22;6021;51.182;3.160;2023-08-06T08:33:18;13.50;99.90
11922;DHT22;6021;51.182;3.160;2023-08-06T08:35:47;13.50;99.90
11922;DHT22;6021;51.182;3.160;2023-08-06T08:38:16;13.50;99.90
11922;DHT22;6021;51.182;3.160;2023-08-06T08:40:46;13.50;99.90
11922;DHT22;6021;51.182;3.160;2023-08-06T08:43:18;13.50;99.90
11922;DHT22;6021;51.182;3.160;2023-08-06T08:45:52;13.60;99.90
11922;DHT22;6021;51.182;3.160;2023-08-06T08:48:23;13.40;99.90
11922;DHT22;6021;51.182;3.160;2023-08-06T08:50:51;13.60;99.90
11922;DHT22;6021;51.182;3.160;2023-08-06T08:53:21;13.70;99.90
11922;DHT22;6021;51.182;3.160;2023-08-06T08:55:50;13.70;99.90
11922;DHT22;6021;51.182;3.160;2023-08-06T08:58:18;13.80;99.90
11922;DHT22;6021;51.182;3.160;2023-08-06T09:00:47;13.80;99.90
11922;DHT22;6021;51.182;3.160;2023-08-06T09:03:18;13.90;99.90
11922;DHT22;6021;51.182;3.160;2023-08-06T09:05:49;13.90;99.90
11922;DHT22;6021;51.182;3.160;2023-08-06T09:08:18;14.00;99.90
11922;DHT22;6021;51.182;3.160;2023-08-06T09:10:49;14.10;99.90
11922;DHT22;6021;51.182;3.160;2023-08-06T09:13:19;14.00;99.90
11922;DHT22;6021;51.182;3.160;2023-08-06T09:15:48;14.00;99.90
11922;DHT22;6021;51.182;3.160;2023-08-06T09:18:29;14.00;99.90
11922;DHT22;6021;51.182;3.160;2023-08-06T09:20:58;13.90;99.90
11922;DHT22;6021;51.182;3.160;2023-08-06T09:23:30;14.00;99.90
11922;DHT22;6021;51.182;3.160;2023-08-06T09:25:59;14.00;99.90
11922;DHT22;6021;51.182;3.160;2023-08-06T09:28:38;14.10;99.90
11922;DHT22;6021;51.182;3.160;2023-08-06T09:31:07;14.20;99.90
11922;DHT22;6021;51.182;3.160;2023-08-06T09:33:37;14.40;99.90
11922;DHT22;6021;51.182;3.160;2023-08-06T09:36:12;14.30;99.90
11922;DHT22;6021;51.182;3.160;2023-08-06T09:38:41;14.30;99.90
11922;DHT22;6021;51.182;3.160;2023-08-06T09:41:09;14.40;99.90
11922;DHT22;6021;51.182;3.160;2023-08-06T09:43:42;14.30;99.90
11922;DHT22;6021;51.182;3.160;2023-08-06T09:46:14;14.40;99.90
11922;DHT22;6021;51.182;3.160;2023-08-06T09:48:47;14.50;99.90
11922;DHT22;6021;51.182;3.160;2023-08-06T09:51:18;14.40;99.90
11922;DHT22;6021;51.182;3.160;2023-08-06T09:53:48;14.40;99.90
11922;DHT22;6021;51.182;3.160;2023-08-06T09:56:18;14.40;99.90
11922;DHT22;6021;51.182;3.160;2023-08-06T09:58:47;14.40;99.90
11922;DHT22;6021;51.182;3.160;2023-08-06T10:01:18;14.30;99.90
11922;DHT22;6021;51.182;3.160;2023-08-06T10:03:47;14.30;99.90
11922;DHT22;6021;51.182;3.160;2023-08-06T10:06:18;14.20;99.90
11922;DHT22;6021;51.182;3.160;2023-08-06T10:08:49;14.40;99.90
11922;DHT22;6021;51.182;3.160;2023-08-06T10:11:17;14.30;99.90
11922;DHT22;6021;51.182;3.160;2023-08-06T10:13:48;14.10;99.90
11922;DHT22;6021;51.182;3.160;2023-08-06T10:16:17;14.20;99.90
11922;DHT22;6021;51.182;3.160;2023-08-06T10:18:46;14.30;99.90
11922;DHT22;6021;51.182;3.160;2023-08-06T10:21:15;14.30;99.90
11922;DHT22;6021;51.182;3.160;2023-08-06T10:23:43;14.30;99.90
11922;DHT22;6021;51.182;3.160;2023-08-06T10:26:12;14.00;99.90
11922;DHT22;6021;51.182;3.160;2023-08-06T10:28:42;14.20;99.90
11922;DHT22;6021;51.182;3.160;2023-08-06T10:31:10;14.20;99.90
11922;DHT22;6021;51.182;3.160;2023-08-06T10:33:43;14.30;99.90
11922;DHT22;6021;51.182;3.160;2023-08-06T10:36:12;14.30;99.90
11922;DHT22;6021;51.182;3.160;2023-08-06T10:38:50;14.30;99.90
11922;DHT22;6021;51.182;3.160;2023-08-06T10:41:29;14.40;99.90
11922;DHT22;6021;51.182;3.160;2023-08-06T10:44:07;14.30;99.90
11922;DHT22;6021;51.182;3.160;2023-08-06T10:46:36;14.30;99.90
11922;DHT22;6021;51.182;3.160;2023-08-06T10:49:05;14.20;99.90
11922;DHT22;6021;51.182;3.160;2023-08-06T10:51:35;14.20;99.90
11922;DHT22;6021;51.182;3.160;2023-08-06T10:54:05;14.30;99.90
11922;DHT22;6021;51.182;3.160;2023-08-06T10:56:39;14.30;99.90
11922;DHT22;6021;51.182;3.160;2023-08-06T10:59:04;14.30;99.90
11922;DHT22;6021;51.182;3.160;2023-08-06T11:01:33;14.40;99.90
11922;DHT22;6021;51.182;3.160;2023-08-06T11:04:03;14.40;99.90
11922;DHT22;6021;51.182;3.160;2023-08-06T11:06:32;14.60;99.90
11922;DHT22;6021;51.182;3.160;2023-08-06T11:09:01;14.50;99.90
11922;DHT22;6021;51.182;3.160;2023-08-06T11:11:30;14.60;99.90
11922;DHT22;6021;51.182;3.160;2023-08-06T11:13:58;14.90;99.90
11922;DHT22;6021;51.182;3.160;2023-08-06T11:16:27;14.80;99.90
11922;DHT22;6021;51.182;3.160;2023-08-06T11:18:55;14.90;99.90
11922;DHT22;6021;51.182;3.160;2023-08-06T11:21:25;15.00;99.90
11922;DHT22;6021;51.182;3.160;2023-08-06T11:23:54;14.70;99.90
11922;DHT22;6021;51.182;3.160;2023-08-06T11:26:22;14.90;99.90
11922;DHT22;6021;51.182;3.160;2023-08-06T11:28:51;14.70;99.90
11922;DHT22;6021;51.182;3.160;2023-08-06T11:31:23;14.60;99.90
11922;DHT22;6021;51.182;3.160;2023-08-06T11:33:55;14.50;99.90
11922;DHT22;6021;51.182;3.160;2023-08-06T11:36:33;14.60;99.90
11922;DHT22;6021;51.182;3.160;2023-08-06T11:39:03;14.50;99.90
11922;DHT22;6021;51.182;3.160;2023-08-06T11:41:36;14.80;99.90
11922;DHT22;6021;51.182;3.160;2023-08-06T11:44:06;14.40;99.90
11922;DHT22;6021;51.182;3.160;2023-08-06T11:46:53;14.70;99.90
11922;DHT22;6021;51.182;3.160;2023-08-06T11:52:25;14.80;99.90
11922;DHT22;6021;51.182;3.160;2023-08-06T11:55:07;14.90;99.90
11922;DHT22;6021;51.182;3.160;2023-08-06T11:57:39;14.90;99.90
11922;DHT22;6021;51.182;3.160;2023-08-06T12:00:12;14.80;99.90
11922;DHT22;6021;51.182;3.160;2023-08-06T12:02:42;14.80;99.90
11922;DHT22;6021;51.182;3.160;2023-08-06T12:05:12;14.90;99.90
11922;DHT22;6021;51.182;3.160;2023-08-06T12:07:42;15.00;99.90
11922;DHT22;6021;51.182;3.160;2023-08-06T12:10:12;15.00;99.90
11922;DHT22;6021;51.182;3.160;2023-08-06T12:12:41;15.00;99.90
11922;DHT22;6021;51.182;3.160;2023-08-06T12:15:10;15.00;99.90
11922;DHT22;6021;51.182;3.160;2023-08-06T12:17:38;15.10;94.10
11922;DHT22;6021;51.182;3.160;2023-08-06T12:20:08;15.00;68.90
11922;DHT22;6021;51.182;3.160;2023-08-06T12:22:37;15.00;60.40
11922;DHT22;6021;51.182;3.160;2023-08-06T12:25:09;14.90;90.20
11922;DHT22;6021;51.182;3.160;2023-08-06T12:27:45;15.10;67.90
11922;DHT22;6021;51.182;3.160;2023-08-06T12:30:10;15.10;88.60
11922;DHT22;6021;51.182;3.160;2023-08-06T12:35:09;15.40;27.10
11922;DHT22;6021;51.182;3.160;2023-08-06T12:37:38;15.40;46.10
11922;DHT22;6021;51.182;3.160;2023-08-06T12:40:11;15.40;11.30
11922;DHT22;6021;51.182;3.160;2023-08-06T12:42:39;15.40;1.00
11922;DHT22;6021;51.182;3.160;2023-08-06T12:45:08;15.40;1.00
11922;DHT22;6021;51.182;3.160;2023-08-06T12:47:36;15.40;1.00
11922;DHT22;6021;51.182;3.160;2023-08-06T12:50:05;15.30;1.00
11922;DHT22;6021;51.182;3.160;2023-08-06T12:52:34;15.30;1.00
11922;DHT22;6021;51.182;3.160;2023-08-06T12:55:03;15.30;1.00
11922;DHT22;6021;51.182;3.160;2023-08-06T12:57:32;15.20;1.00
11922;DHT22;6021;51.182;3.160;2023-08-06T13:00:02;15.30;1.00
11922;DHT22;6021;51.182;3.160;2023-08-06T13:02:30;15.60;1.00
11922;DHT22;6021;51.182;3.160;2023-08-06T13:04:59;15.30;1.00
11922;DHT22;6021;51.182;3.160;2023-08-06T13:07:27;15.30;1.00
11922;DHT22;6021;51.182;3.160;2023-08-06T13:09:55;15.30;8.70
11922;DHT22;6021;51.182;3.160;2023-08-06T13:12:24;15.40;19.30
11922;DHT22;6021;51.182;3.160;2023-08-06T13:14:52;15.40;39.40
11922;DHT22;6021;51.182;3.160;2023-08-06T13:17:23;15.40;62.60
11922;DHT22;6021;51.182;3.160;2023-08-06T13:19:52;15.40;74.70
11922;DHT22;6021;51.182;3.160;2023-08-06T13:22:20;15.40;90.70
11922;DHT22;6021;51.182;3.160;2023-08-06T13:24:49;15.30;94.00
11922;DHT22;6021;51.182;3.160;2023-08-06T13:27:18;15.30;99.90
11922;DHT22;6021;51.182;3.160;2023-08-06T13:29:47;15.40;99.90
11922;DHT22;6021;51.182;3.160;2023-08-06T13:32:15;15.50;99.90
11922;DHT22;6021;51.182;3.160;2023-08-06T13:34:43;15.70;99.90
11922;DHT22;6021;51.182;3.160;2023-08-06T13:37:12;15.80;99.90
11922;DHT22;6021;51.182;3.160;2023-08-06T13:39:40;15.80;97.10
11922;DHT22;6021;51.182;3.160;2023-08-06T13:42:08;15.80;62.30
11922;DHT22;6021;51.182;3.160;2023-08-06T13:44:37;15.90;57.60
11922;DHT22;6021;51.182;3.160;2023-08-06T13:47:05;16.00;44.70
11922;DHT22;6021;51.182;3.160;2023-08-06T13:49:33;16.00;28.30
11922;DHT22;6021;51.182;3.160;2023-08-06T13:52:01;16.00;1.00
11922;DHT22;6021;51.182;3.160;2023-08-06T13:54:30;16.10;1.00
11922;DHT22;6021;51.182;3.160;2023-08-06T13:56:58;16.00;1.00
11922;DHT22;6021;51.182;3.160;2023-08-06T13:59:26;16.00;2.00
11922;DHT22;6021;51.182;3.160;2023-08-06T14:01:55;16.10;8.20
11922;DHT22;6021;51.182;3.160;2023-08-06T14:04:25;16.10;1.00
11922;DHT22;6021;51.182;3.160;2023-08-06T14:06:53;16.00;3.20
11922;DHT22;6021;51.182;3.160;2023-08-06T14:09:22;16.20;3.80
11922;DHT22;6021;51.182;3.160;2023-08-06T14:11:50;15.80;15.60
11922;DHT22;6021;51.182;3.160;2023-08-06T14:14:18;15.60;47.30
11922;DHT22;6021;51.182;3.160;2023-08-06T14:16:48;15.30;92.90
11922;DHT22;6021;51.182;3.160;2023-08-06T14:19:30;15.20;99.90
11922;DHT22;6021;51.182;3.160;2023-08-06T14:21:58;15.10;99.90
11922;DHT22;6021;51.182;3.160;2023-08-06T14:24:26;15.10;99.90
11922;DHT22;6021;51.182;3.160;2023-08-06T14:26:55;15.00;99.90
11922;DHT22;6021;51.182;3.160;2023-08-06T14:29:23;15.00;99.90
11922;DHT22;6021;51.182;3.160;2023-08-06T14:31:52;15.00;99.90
11922;DHT22;6021;51.182;3.160;2023-08-06T14:34:20;15.00;99.90
11922;DHT22;6021;51.182;3.160;2023-08-06T14:36:49;15.00;99.90
11922;DHT22;6021;51.182;3.160;2023-08-06T14:39:17;15.10;99.90
11922;DHT22;6021;51.182;3.160;2023-08-06T14:41:46;15.20;99.90
11922;DHT22;6021;51.182;3.160;2023-08-06T14:44:14;15.30;99.90
11922;DHT22;6021;51.182;3.160;2023-08-06T14:46:42;15.40;99.90
11922;DHT22;6021;51.182;3.160;2023-08-06T14:49:11;15.40;99.90
11922;DHT22;6021;51.182;3.160;2023-08-06T14:51:39;15.70;99.90
11922;DHT22;6021;51.182;3.160;2023-08-06T14:54:07;15.80;99.90
11922;DHT22;6021;51.182;3.160;2023-08-06T14:56:36;15.90;99.90
11922;DHT22;6021;51.182;3.160;2023-08-06T14:59:04;15.90;99.90
11922;DHT22;6021;51.182;3.160;2023-08-06T15:01:32;15.90;99.90
11922;DHT22;6021;51.182;3.160;2023-08-06T15:04:01;15.80;99.90
11922;DHT22;6021;51.182;3.160;2023-08-06T15:06:29;15.60;99.90
11922;DHT22;6021;51.182;3.160;2023-08-06T15:08:57;15.60;99.90
11922;DHT22;6021;51.182;3.160;2023-08-06T15:11:28;15.50;99.90
11922;DHT22;6021;51.182;3.160;2023-08-06T15:13:56;15.40;99.90
11922;DHT22;6021;51.182;3.160;2023-08-06T15:16:25;15.20;99.90
11922;DHT22;6021;51.182;3.160;2023-08-06T15:18:53;15.00;99.90
11922;DHT22;6021;51.182;3.160;2023-08-06T15:21:22;14.70;99.90
11922;DHT22;6021;51.182;3.160;2023-08-06T15:23:50;14.40;99.90
11922;DHT22;6021;51.182;3.160;2023-08-06T15:26:18;14.10;99.90
11922;DHT22;6021;51.182;3.160;2023-08-06T15:28:48;14.10;99.90
11922;DHT22;6021;51.182;3.160;2023-08-06T15:31:19;13.90;99.90
11922;DHT22;6021;51.182;3.160;2023-08-06T15:33:48;13.90;99.90
11922;DHT22;6021;51.182;3.160;2023-08-06T15:36:16;13.80;99.90
11922;DHT22;6021;51.182;3.160;2023-08-06T15:38:45;13.80;99.90
11922;DHT22;6021;51.182;3.160;2023-08-06T15:41:13;13.70;99.90
11922;DHT22;6021;51.182;3.160;2023-08-06T15:43:42;13.70;99.90
11922;DHT22;6021;51.182;3.160;2023-08-06T15:46:11;13.70;99.90
11922;DHT22;6021;51.182;3.160;2023-08-06T15:48:39;13.60;99.90
11922;DHT22;6021;51.182;3.160;2023-08-06T15:51:07;13.70;99.90
11922;DHT22;6021;51.182;3.160;2023-08-06T15:53:36;13.70;99.90
11922;DHT22;6021;51.182;3.160;2023-08-06T15:56:04;13.80;99.90
11922;DHT22;6021;51.182;3.160;2023-08-06T15:58:33;13.80;99.90
11922;DHT22;6021;51.182;3.160;2023-08-06T16:01:01;13.90;99.90
11922;DHT22;6021;51.182;3.160;2023-08-06T16:03:29;13.80;99.90
11922;DHT22;6021;51.182;3.160;2023-08-06T16:05:58;14.00;99.90